createdAt,value
2023-03-29T00:02:51.581Z,10.20
2023-03-29T00:05:25.575Z,20.92
2023-03-29T00:07:54.395Z,13.05
2023-03-29T00:10:26.562Z,9.63
2023-03-29T00:12:53.464Z,10.05
2023-03-29T00:15:21.081Z,15.50
2023-03-29T00:17:48.063Z,13.02
2023-03-29T00:20:14.968Z,16.58
2023-03-29T00:22:42.507Z,17.63
2023-03-29T00:25:12.120Z,11.90
2023-03-29T00:27:39.310Z,9.77
2023-03-29T00:30:08.347Z,7.32
2023-03-29T00:32:35.315Z,9.85
2023-03-29T00:35:02.243Z,18.35
2023-03-29T00:37:30.077Z,23.05
2023-03-29T00:39:57.678Z,19.55
2023-03-29T00:42:25.788Z,22.83
2023-03-29T00:44:58.478Z,21.80
2023-03-29T00:47:29.359Z,21.38
2023-03-29T00:50:00.405Z,22.75
2023-03-29T00:54:59.467Z,23.17
2023-03-29T00:57:29.284Z,21.77
2023-03-29T00:59:57.236Z,20.73
2023-03-29T01:02:26.358Z,21.98
2023-03-29T01:05:00.163Z,20.42
2023-03-29T01:07:35.397Z,21.42
2023-03-29T01:10:09.345Z,18.02
2023-03-29T01:12:41.135Z,21.60
2023-03-29T01:15:14.127Z,14.55
2023-03-29T01:17:44.448Z,17.30
2023-03-29T01:20:20.226Z,20.83
2023-03-29T01:22:56.478Z,22.23
2023-03-29T01:25:42.135Z,18.60
2023-03-29T01:28:13.265Z,23.40
2023-03-29T01:33:23.500Z,21.90
2023-03-29T01:36:09.301Z,16.27
2023-03-29T01:38:53.012Z,9.63
2023-03-29T01:41:20.278Z,22.60
2023-03-29T01:43:52.990Z,21.92
2023-03-29T01:46:42.200Z,23.40
2023-03-29T01:49:37.659Z,19.95
2023-03-29T01:52:15.700Z,20.58
2023-03-29T01:55:05.594Z,20.63
2023-03-29T01:57:33.548Z,23.08
2023-03-29T02:00:00.869Z,18.10
2023-03-29T02:02:29.913Z,9.57
2023-03-29T02:04:57.774Z,12.23
2023-03-29T02:07:30.795Z,14.48
2023-03-29T02:09:58.400Z,15.05
2023-03-29T02:12:25.353Z,14.65
2023-03-29T02:14:54.042Z,15.65
2023-03-29T02:17:23.153Z,16.33
2023-03-29T02:20:14.193Z,15.55
2023-03-29T02:23:05.289Z,18.83
2023-03-29T02:25:32.699Z,17.20
2023-03-29T02:28:01.409Z,21.73
2023-03-29T02:30:42.091Z,15.80
2023-03-29T02:33:16.964Z,16.92
2023-03-29T02:35:53.333Z,13.52
2023-03-29T02:38:21.814Z,10.23
2023-03-29T02:40:48.720Z,19.40
2023-03-29T02:43:16.727Z,17.48
2023-03-29T02:45:44.569Z,11.07
2023-03-29T02:48:16.372Z,15.55
2023-03-29T02:50:45.330Z,14.10
2023-03-29T02:53:18.180Z,16.08
2023-03-29T02:55:47.205Z,17.13
2023-03-29T02:58:15.617Z,8.38
2023-03-29T03:00:46.078Z,14.98
2023-03-29T03:03:13.389Z,18.35
2023-03-29T03:05:40.541Z,9.77
2023-03-29T03:08:07.661Z,11.50
2023-03-29T03:10:35.305Z,12.27
2023-03-29T03:13:04.098Z,16.83
2023-03-29T03:15:35.832Z,16.17
2023-03-29T03:20:31.293Z,13.90
2023-03-29T03:22:58.593Z,12.25
2023-03-29T03:25:25.704Z,8.05
2023-03-29T03:27:53.260Z,12.90
2023-03-29T03:30:22.934Z,14.65
2023-03-29T03:33:12.967Z,14.70
2023-03-29T03:35:42.704Z,13.77
2023-03-29T03:38:10.920Z,16.88
2023-03-29T03:40:38.460Z,12.10
2023-03-29T03:43:05.356Z,10.02
2023-03-29T03:45:32.240Z,15.27
2023-03-29T03:48:07.361Z,11.93
2023-03-29T03:51:00.899Z,14.68
2023-03-29T03:53:32.714Z,14.25
2023-03-29T03:56:15.239Z,11.77
2023-03-29T03:58:57.451Z,12.85
2023-03-29T04:01:27.469Z,7.13
2023-03-29T04:04:09.467Z,13.18
2023-03-29T04:06:37.885Z,6.18
2023-03-29T04:09:27.776Z,12.60
2023-03-29T04:12:09.581Z,15.23
2023-03-29T04:14:37.982Z,8.05
2023-03-29T04:17:07.314Z,4.88
2023-03-29T04:19:48.708Z,14.25
2023-03-29T04:22:15.961Z,11.43
2023-03-29T04:24:43.340Z,11.27
2023-03-29T04:27:36.902Z,6.72
2023-03-29T04:30:10.994Z,12.73
2023-03-29T04:33:04.316Z,10.38
2023-03-29T04:35:32.511Z,10.63
2023-03-29T04:37:59.549Z,7.20
2023-03-29T04:40:26.555Z,9.85
2023-03-29T04:43:03.893Z,6.25
2023-03-29T04:45:31.556Z,8.52
2023-03-29T04:48:08.557Z,10.48
2023-03-29T04:50:38.029Z,8.88
2023-03-29T04:53:06.011Z,14.30
2023-03-29T04:55:33.607Z,7.90
2023-03-29T04:58:02.862Z,12.50
2023-03-29T05:00:40.192Z,13.57
2023-03-29T05:03:28.724Z,7.10
2023-03-29T05:06:09.100Z,13.40
2023-03-29T05:08:39.346Z,7.90
2023-03-29T05:11:17.736Z,14.07
2023-03-29T05:13:44.622Z,11.25
2023-03-29T05:16:11.598Z,12.05
2023-03-29T05:18:39.106Z,13.38
2023-03-29T05:21:06.508Z,9.38
2023-03-29T05:23:36.273Z,9.48
2023-03-29T05:26:22.724Z,11.52
2023-03-29T05:31:20.019Z,9.45
2023-03-29T05:36:19.381Z,9.15
2023-03-29T05:41:17.901Z,9.30
2023-03-29T05:44:03.235Z,13.63
2023-03-29T05:46:31.037Z,8.38
2023-03-29T05:49:02.534Z,12.80
2023-03-29T05:51:58.859Z,11.13
2023-03-29T05:54:27.479Z,11.25
2023-03-29T05:56:54.941Z,9.63
2023-03-29T05:59:23.688Z,9.77
2023-03-29T06:01:52.069Z,16.08
2023-03-29T06:04:21.268Z,13.20
2023-03-29T06:07:07.233Z,16.13
2023-03-29T06:09:35.390Z,12.45
2023-03-29T06:12:04.375Z,9.48
2023-03-29T06:14:48.373Z,9.40
2023-03-29T06:17:28.168Z,15.00
2023-03-29T06:19:55.226Z,16.33
2023-03-29T06:22:24.954Z,14.57
2023-03-29T06:24:52.286Z,9.40
2023-03-29T06:27:29.354Z,17.00
2023-03-29T06:29:56.808Z,11.75
2023-03-29T06:32:23.836Z,15.55
2023-03-29T06:34:57.228Z,14.15
2023-03-29T06:37:32.678Z,17.23
2023-03-29T06:40:19.698Z,19.40
2023-03-29T06:42:47.795Z,22.05
2023-03-29T06:45:32.696Z,12.80
2023-03-29T06:48:03.429Z,17.23
2023-03-29T06:50:31.215Z,11.70
2023-03-29T06:53:09.678Z,10.30
2023-03-29T06:55:36.538Z,11.05
2023-03-29T06:58:29.493Z,9.93
2023-03-29T07:01:05.377Z,11.25
2023-03-29T07:03:49.984Z,14.05
2023-03-29T07:06:22.429Z,18.25
2023-03-29T07:08:52.556Z,13.63
2023-03-29T07:11:36.984Z,12.10
2023-03-29T07:14:23.405Z,14.98
2023-03-29T07:16:52.894Z,9.80
2023-03-29T07:19:30.317Z,18.35
2023-03-29T07:22:26.698Z,13.90
2023-03-29T07:25:00.188Z,15.43
2023-03-29T07:27:27.618Z,11.32
2023-03-29T07:29:54.460Z,11.52
2023-03-29T07:32:21.493Z,16.75
2023-03-29T07:34:59.681Z,23.05
2023-03-29T07:37:37.522Z,12.50
2023-03-29T07:40:26.566Z,15.35
2023-03-29T07:42:57.242Z,19.70
2023-03-29T07:45:28.119Z,9.60
2023-03-29T07:48:01.515Z,14.52
2023-03-29T07:50:42.087Z,13.13
2023-03-29T07:53:09.644Z,8.05
2023-03-29T07:55:36.646Z,10.38
2023-03-29T07:58:17.422Z,7.40
2023-03-29T08:00:44.397Z,8.20
2023-03-29T08:03:31.473Z,7.80
2023-03-29T08:06:02.156Z,9.60
2023-03-29T08:08:29.050Z,13.00
2023-03-29T08:11:00.891Z,12.45
2023-03-29T08:13:36.554Z,12.43
2023-03-29T08:16:21.735Z,16.80
2023-03-29T08:18:55.684Z,12.77
2023-03-29T08:21:27.587Z,9.57
2023-03-29T08:23:54.499Z,10.35
2023-03-29T08:26:26.015Z,14.60
2023-03-29T08:28:54.214Z,14.38
2023-03-29T08:31:23.540Z,11.50
2023-03-29T08:33:51.693Z,14.75
2023-03-29T08:36:41.397Z,13.02
2023-03-29T08:39:16.888Z,11.95
2023-03-29T08:41:57.843Z,15.73
2023-03-29T08:44:31.101Z,12.25
2023-03-29T08:47:08.967Z,10.82
2023-03-29T08:49:44.086Z,11.50
2023-03-29T08:52:23.619Z,9.13
2023-03-29T08:54:53.663Z,8.98
2023-03-29T08:57:49.342Z,8.38
2023-03-29T09:01:06.241Z,8.30
2023-03-29T09:04:04.976Z,8.98
2023-03-29T09:06:55.685Z,9.65
2023-03-29T09:09:33.367Z,9.05
2023-03-29T09:12:30.537Z,6.60
2023-03-29T09:15:00.399Z,9.55
2023-03-29T09:17:49.721Z,8.55
2023-03-29T09:20:48.284Z,9.57
2023-03-29T09:23:38.938Z,8.13
2023-03-29T09:26:31.754Z,7.80
2023-03-29T09:31:45.553Z,7.22
2023-03-29T09:37:04.061Z,5.75
2023-03-29T09:39:31.168Z,6.75
2023-03-29T09:42:12.030Z,5.45
2023-03-29T09:44:44.153Z,9.50
2023-03-29T09:47:25.051Z,10.05
2023-03-29T09:49:57.213Z,5.55
2023-03-29T09:52:24.151Z,7.07
2023-03-29T09:55:03.850Z,7.95
2023-03-29T09:57:50.283Z,8.68
2023-03-29T10:00:19.708Z,9.63
2023-03-29T10:02:53.865Z,9.23
2023-03-29T10:05:28.390Z,5.73
2023-03-29T10:07:58.915Z,5.72
2023-03-29T10:10:30.786Z,9.32
2023-03-29T10:13:01.326Z,7.68
2023-03-29T10:15:30.270Z,11.98
2023-03-29T10:18:10.912Z,7.63
2023-03-29T10:20:40.071Z,3.85
2023-03-29T10:23:09.145Z,4.88
2023-03-29T10:25:42.441Z,8.32
2023-03-29T10:28:21.230Z,8.63
2023-03-29T10:30:54.387Z,9.50
2023-03-29T10:33:24.139Z,8.77
2023-03-29T10:35:51.706Z,8.23
2023-03-29T10:38:20.949Z,7.22
2023-03-29T10:40:52.036Z,7.95
2023-03-29T10:43:24.783Z,11.57
2023-03-29T10:45:56.414Z,9.23
2023-03-29T10:48:30.659Z,10.32
2023-03-29T10:51:01.759Z,9.93
2023-03-29T10:53:32.741Z,7.53
2023-03-29T10:56:12.828Z,6.53
2023-03-29T10:59:15.079Z,6.97
2023-03-29T11:02:03.884Z,11.48
2023-03-29T11:04:34.750Z,10.18
2023-03-29T11:07:31.805Z,9.27
2023-03-29T11:10:06.150Z,10.55
2023-03-29T11:12:48.160Z,11.13
2023-03-29T11:15:17.813Z,11.32
2023-03-29T11:17:55.989Z,8.18
2023-03-29T11:20:28.749Z,11.23
2023-03-29T11:23:13.557Z,7.55
2023-03-29T11:25:49.784Z,17.13
2023-03-29T11:28:28.828Z,9.20
2023-03-29T11:31:10.169Z,12.02
2023-03-29T11:33:43.236Z,10.82
2023-03-29T11:36:17.777Z,12.82
2023-03-29T11:39:04.287Z,11.15
2023-03-29T11:41:34.736Z,13.00
2023-03-29T11:44:05.795Z,15.10
2023-03-29T11:46:50.841Z,15.63
2023-03-29T11:49:27.838Z,11.18
2023-03-29T11:52:30.162Z,13.73
2023-03-29T11:55:08.268Z,7.38
2023-03-29T11:57:40.994Z,16.45
2023-03-29T12:00:24.558Z,13.75
2023-03-29T12:02:55.300Z,14.35
2023-03-29T12:05:27.459Z,14.65
2023-03-29T12:08:01.630Z,11.90
2023-03-29T12:10:34.887Z,15.32
2023-03-29T12:13:22.819Z,12.48
2023-03-29T12:16:01.408Z,6.82
2023-03-29T12:18:37.117Z,7.10
2023-03-29T12:21:09.357Z,7.57
2023-03-29T12:23:36.604Z,10.68
2023-03-29T12:26:12.744Z,11.20
2023-03-29T12:29:24.597Z,8.88
2023-03-29T12:31:54.589Z,11.60
2023-03-29T12:34:31.147Z,10.85
2023-03-29T12:37:13.973Z,9.68
2023-03-29T12:40:18.141Z,7.25
2023-03-29T12:43:25.390Z,8.77
2023-03-29T12:46:16.531Z,5.45
2023-03-29T12:48:45.041Z,9.05
2023-03-29T12:51:23.526Z,7.32
2023-03-29T12:54:02.512Z,7.07
2023-03-29T12:56:39.945Z,6.60
2023-03-29T12:59:23.373Z,7.55
2023-03-29T13:02:30.428Z,5.18
2023-03-29T13:05:00.382Z,7.80
2023-03-29T13:07:52.808Z,11.05
2023-03-29T13:10:36.265Z,6.82
2023-03-29T13:13:17.092Z,5.93
2023-03-29T13:15:45.660Z,7.97
2023-03-29T13:18:34.292Z,10.27
2023-03-29T13:21:06.908Z,6.90
2023-03-29T13:23:49.168Z,8.13
2023-03-29T13:26:24.052Z,11.00
2023-03-29T13:29:21.115Z,12.48
2023-03-29T13:32:14.427Z,7.60
2023-03-29T13:35:07.568Z,10.73
2023-03-29T13:37:44.442Z,8.48
2023-03-29T13:40:29.993Z,6.82
2023-03-29T13:43:20.044Z,9.00
2023-03-29T13:45:59.047Z,8.50
2023-03-29T13:48:35.239Z,9.23
2023-03-29T13:51:03.361Z,8.85
2023-03-29T13:53:36.565Z,6.07
2023-03-29T13:56:04.139Z,8.60
2023-03-29T13:58:51.321Z,12.32
2023-03-29T14:01:43.753Z,7.30
2023-03-29T14:04:16.310Z,8.52
2023-03-29T14:06:49.032Z,9.57
2023-03-29T14:09:18.508Z,8.32
2023-03-29T14:11:47.357Z,13.00
2023-03-29T14:14:14.891Z,10.38
2023-03-29T14:16:42.376Z,8.43
2023-03-29T14:19:16.014Z,9.27
2023-03-29T14:21:43.892Z,8.88
2023-03-29T14:24:13.189Z,7.50
2023-03-29T14:26:44.884Z,6.25
2023-03-29T14:29:12.194Z,9.27
2023-03-29T14:31:41.448Z,8.25
2023-03-29T14:34:28.820Z,11.48
2023-03-29T14:36:55.757Z,11.77
2023-03-29T14:39:23.548Z,8.20
2023-03-29T14:41:52.513Z,10.75
2023-03-29T14:44:21.884Z,9.32
2023-03-29T14:46:49.115Z,6.53
2023-03-29T14:49:17.633Z,7.75
2023-03-29T14:51:45.575Z,12.32
2023-03-29T14:54:27.300Z,9.55
2023-03-29T14:56:55.067Z,12.52
2023-03-29T14:59:27.889Z,10.18
2023-03-29T15:01:54.860Z,7.68
2023-03-29T15:04:21.773Z,8.48
2023-03-29T15:06:50.843Z,7.40
2023-03-29T15:09:27.562Z,8.07
2023-03-29T15:11:56.384Z,9.73
2023-03-29T15:14:24.759Z,7.30
2023-03-29T15:16:53.516Z,7.78
2023-03-29T15:19:21.977Z,10.55
2023-03-29T15:21:50.011Z,11.23
2023-03-29T15:24:31.220Z,12.00
2023-03-29T15:27:00.250Z,16.17
2023-03-29T15:29:35.384Z,14.68
2023-03-29T15:32:02.336Z,16.98
2023-03-29T15:34:33.440Z,12.43
2023-03-29T15:39:28.775Z,13.35
2023-03-29T15:41:56.932Z,14.52
2023-03-29T15:44:29.438Z,17.05
2023-03-29T15:46:57.809Z,11.27
2023-03-29T15:49:25.162Z,13.32
2023-03-29T15:51:55.731Z,16.45
2023-03-29T15:54:24.476Z,20.45
2023-03-29T15:56:54.279Z,20.15
2023-03-29T15:59:21.757Z,17.25
2023-03-29T16:01:48.865Z,14.48
2023-03-29T16:04:17.883Z,18.25
2023-03-29T16:06:46.985Z,16.15
2023-03-29T16:09:13.927Z,21.38
2023-03-29T16:11:42.008Z,16.13
2023-03-29T16:14:27.138Z,23.45
2023-03-29T16:17:01.126Z,23.52
2023-03-29T16:19:29.638Z,15.40
2023-03-29T16:21:57.206Z,21.45
2023-03-29T16:24:26.287Z,20.52
2023-03-29T16:26:55.636Z,21.25
2023-03-29T16:29:23.941Z,19.17
2023-03-29T16:31:51.217Z,19.38
2023-03-29T16:34:19.340Z,17.85
2023-03-29T16:36:49.253Z,15.30
2023-03-29T16:39:17.433Z,14.00
2023-03-29T16:41:45.365Z,11.60
2023-03-29T16:44:21.789Z,10.20
2023-03-29T16:46:51.656Z,14.45
2023-03-29T16:49:18.477Z,13.50
2023-03-29T16:51:48.382Z,14.80
2023-03-29T16:54:15.716Z,16.15
2023-03-29T16:56:42.880Z,14.23
2023-03-29T16:59:09.834Z,15.23
2023-03-29T17:01:37.360Z,16.92
2023-03-29T17:04:04.879Z,16.27
2023-03-29T17:06:32.781Z,16.73
2023-03-29T17:09:00.785Z,20.02
2023-03-29T17:11:28.440Z,15.85
2023-03-29T17:13:55.776Z,20.48
2023-03-29T17:16:23.065Z,18.73
2023-03-29T17:18:49.986Z,16.95
2023-03-29T17:21:16.876Z,16.55
2023-03-29T17:23:43.730Z,18.60
2023-03-29T17:26:11.973Z,25.33
2023-03-29T17:28:38.887Z,21.92
2023-03-29T17:31:09.928Z,25.85
2023-03-29T17:33:37.060Z,24.08
2023-03-29T17:36:05.739Z,17.67
2023-03-29T17:38:34.337Z,19.92
2023-03-29T17:41:02.823Z,22.17
2023-03-29T17:43:29.919Z,23.95
2023-03-29T17:45:56.966Z,27.02
2023-03-29T17:48:24.394Z,29.92
2023-03-29T17:50:51.533Z,21.75
2023-03-29T17:53:18.361Z,29.13
2023-03-29T17:55:45.250Z,23.48
2023-03-29T17:58:12.313Z,31.27
2023-03-29T18:00:39.080Z,28.48
2023-03-29T18:03:05.977Z,30.92
2023-03-29T18:05:34.498Z,30.75
2023-03-29T18:08:01.415Z,36.67
2023-03-29T18:10:28.281Z,26.40
2023-03-29T18:12:55.101Z,21.40
2023-03-29T18:15:22.046Z,21.63
2023-03-29T18:17:48.900Z,22.50
2023-03-29T18:20:16.462Z,17.63
2023-03-29T18:22:44.545Z,17.13
2023-03-29T18:25:11.418Z,19.17
2023-03-29T18:27:39.027Z,13.70
2023-03-29T18:30:08.752Z,15.40
2023-03-29T18:32:36.377Z,15.63
2023-03-29T18:35:03.686Z,10.27
2023-03-29T18:37:30.505Z,11.48
2023-03-29T18:39:57.420Z,11.70
2023-03-29T18:42:24.272Z,11.00
2023-03-29T18:44:51.413Z,13.68
2023-03-29T18:47:21.337Z,7.82
2023-03-29T18:49:48.188Z,7.95
2023-03-29T18:52:14.928Z,8.90
2023-03-29T18:54:41.881Z,9.57
2023-03-29T18:57:08.933Z,8.48
2023-03-29T18:59:38.723Z,11.32
2023-03-29T19:02:05.633Z,24.17
2023-03-29T19:04:32.526Z,16.13
2023-03-29T19:07:01.399Z,14.13
2023-03-29T19:09:28.244Z,13.68
2023-03-29T19:11:55.006Z,15.13
2023-03-29T19:14:24.272Z,15.88
2023-03-29T19:16:52.361Z,18.50
2023-03-29T19:19:19.424Z,23.50
2023-03-29T19:21:49.652Z,30.88
2023-03-29T19:24:16.948Z,20.08
2023-03-29T19:26:44.523Z,21.75
2023-03-29T19:29:11.759Z,27.60
2023-03-29T19:31:38.972Z,22.65
2023-03-29T19:34:07.105Z,26.50
2023-03-29T19:36:33.985Z,29.80
2023-03-29T19:39:00.993Z,27.73
2023-03-29T19:41:28.313Z,20.02
2023-03-29T19:43:55.274Z,23.33
2023-03-29T19:46:22.505Z,25.58
2023-03-29T19:48:49.667Z,37.28
2023-03-29T19:51:16.834Z,34.10
2023-03-29T19:53:43.720Z,27.63
2023-03-29T19:56:11.088Z,26.63
2023-03-29T19:58:38.066Z,24.23
2023-03-29T20:01:05.102Z,22.85
2023-03-29T20:03:34.226Z,22.38
2023-03-29T20:06:01.396Z,18.83
2023-03-29T20:08:28.238Z,22.33
2023-03-29T20:11:14.442Z,22.65
2023-03-29T20:13:42.530Z,20.33
2023-03-29T20:16:11.786Z,23.35
2023-03-29T20:18:39.003Z,21.20
2023-03-29T20:21:07.422Z,26.98
2023-03-29T20:23:34.725Z,27.35
2023-03-29T20:26:01.562Z,44.38
2023-03-29T20:28:28.444Z,22.50
2023-03-29T20:30:55.415Z,27.45
2023-03-29T20:33:22.435Z,26.00
2023-03-29T20:35:49.615Z,24.23
2023-03-29T20:38:16.474Z,29.70
2023-03-29T20:40:44.971Z,23.60
2023-03-29T20:43:13.735Z,25.90
2023-03-29T20:45:52.803Z,27.90
2023-03-29T20:48:23.604Z,20.48
2023-03-29T20:50:50.940Z,27.75
2023-03-29T20:53:18.538Z,36.00
2023-03-29T20:55:45.433Z,26.15
2023-03-29T20:58:12.612Z,33.10
2023-03-29T21:00:40.478Z,24.77
2023-03-29T21:03:08.552Z,33.22
2023-03-29T21:05:35.774Z,26.65
2023-03-29T21:08:04.502Z,22.00
2023-03-29T21:10:31.980Z,18.90
2023-03-29T21:13:02.861Z,20.67
2023-03-29T21:17:58.387Z,17.25
2023-03-29T21:20:25.678Z,21.13
2023-03-29T21:22:53.131Z,16.73
2023-03-29T21:25:20.048Z,12.45
2023-03-29T21:27:46.956Z,12.32
2023-03-29T21:30:14.203Z,15.23
2023-03-29T21:32:41.273Z,14.25
2023-03-29T21:35:09.164Z,14.23
2023-03-29T21:37:36.118Z,15.70
2023-03-29T21:40:05.978Z,17.13
2023-03-29T21:42:34.012Z,18.17
2023-03-29T21:45:01.944Z,13.10
2023-03-29T21:47:29.702Z,16.95
2023-03-29T21:49:56.707Z,15.80
2023-03-29T21:52:23.633Z,12.35
2023-03-29T21:54:50.658Z,22.30
2023-03-29T21:57:17.727Z,17.60
2023-03-29T21:59:44.818Z,16.08
2023-03-29T22:02:11.807Z,15.57
2023-03-29T22:05:31.317Z,12.48
2023-03-29T22:07:58.897Z,11.02
2023-03-29T22:10:25.989Z,8.85
2023-03-29T22:12:53.329Z,13.02
2023-03-29T22:15:20.786Z,12.18
2023-03-29T22:17:48.004Z,12.90
2023-03-29T22:20:15.216Z,9.48
2023-03-29T22:22:49.860Z,13.20
2023-03-29T22:25:18.052Z,12.68
2023-03-29T22:28:24.713Z,17.40
2023-03-29T22:30:51.625Z,15.10
2023-03-29T22:33:18.425Z,12.90
2023-03-29T22:35:45.285Z,12.27
2023-03-29T22:38:12.224Z,13.48
2023-03-29T22:40:40.869Z,12.23
2023-03-29T22:44:03.687Z,14.80
2023-03-29T22:46:30.632Z,15.75
2023-03-29T22:48:57.510Z,15.55
2023-03-29T22:51:24.349Z,12.38
2023-03-29T22:53:51.590Z,16.33
2023-03-29T22:56:19.550Z,14.10
2023-03-29T22:58:46.556Z,13.85
2023-03-29T23:01:13.508Z,16.60
2023-03-29T23:03:40.582Z,12.80
2023-03-29T23:06:07.818Z,10.75
2023-03-29T23:08:35.374Z,14.85
2023-03-29T23:11:03.369Z,9.52
2023-03-29T23:13:30.730Z,19.45
2023-03-29T23:15:59.353Z,13.73
2023-03-29T23:18:28.664Z,11.73
2023-03-29T23:20:56.792Z,18.55
2023-03-29T23:23:25.630Z,13.27
2023-03-29T23:25:53.377Z,16.88
2023-03-29T23:28:23.576Z,14.65
2023-03-29T23:31:11.629Z,14.32
2023-03-29T23:33:41.336Z,10.73
2023-03-29T23:36:11.536Z,16.88
2023-03-29T23:38:39.882Z,14.25
2023-03-29T23:41:08.651Z,21.63
2023-03-29T23:43:40.494Z,18.42
2023-03-29T23:46:12.435Z,20.10
2023-03-29T23:49:36.313Z,14.20
2023-03-29T23:52:03.224Z,12.60
2023-03-29T23:54:30.134Z,9.98
2023-03-29T23:56:57.213Z,10.90
2023-03-29T23:59:28.914Z,8.45
